Time;durP1;ratioP1;P1;durP2;ratioP2;P2;SDS_P1;SDS_P2;PMS_P1;PMS_P2;Temp;Humidity;BMP_temperature;BMP_pressure;BME280_temperature;BME280_humidity;BME280_pressure;Samples;Min_cycle;Max_cycle;Signal;HPM_P1;HPM_P2
2022/01/02 00:00:15;;;;;;;4.15;1.90;;;12.40;99.90;;;;;;5020790;28;20391;-88
2022/01/02 00:02:42;;;;;;;6.10;2.35;;;12.40;99.90;;;;;;5030440;28;20041;-88
2022/01/02 00:05:14;;;;;;;3.38;1.52;;;12.40;99.90;;;;;;5026407;28;20065;-87
2022/01/02 00:08:12;;;;;;;4.38;1.65;;;12.40;99.90;;;;;;5024813;28;20077;-87
2022/01/02 00:10:56;;;;;;;6.82;1.85;;;12.40;99.90;;;;;;5011555;28;20042;-87
2022/01/02 00:13:28;;;;;;;9.77;2.00;;;12.40;99.90;;;;;;5024017;28;20036;-87
2022/01/02 00:15:56;;;;;;;6.07;2.13;;;12.40;99.90;;;;;;5031607;28;20028;-87
2022/01/02 00:18:26;;;;;;;6.15;2.53;;;12.40;99.90;;;;;;5034263;28;20030;-88
2022/01/02 00:20:52;;;;;;;9.70;2.50;;;12.40;99.90;;;;;;5034845;28;20047;-87
2022/01/02 00:23:23;;;;;;;7.45;2.67;;;12.40;99.90;;;;;;5033229;28;20032;-87
2022/01/02 00:25:54;;;;;;;7.25;2.00;;;12.40;99.90;;;;;;5028931;28;20410;-87
2022/01/02 00:28:19;;;;;;;6.70;1.73;;;12.40;99.90;;;;;;5029128;28;20466;-87
2022/01/02 00:30:47;;;;;;;4.88;2.03;;;12.40;99.90;;;;;;5021312;28;20026;-88
2022/01/02 00:33:13;;;;;;;4.10;1.92;;;12.40;99.90;;;;;;5033306;28;20056;-87
2022/01/02 00:35:39;;;;;;;5.35;2.05;;;12.30;99.90;;;;;;5023699;28;20456;-87
2022/01/02 00:38:05;;;;;;;7.30;2.17;;;12.40;99.90;;;;;;5032002;28;20398;-88
2022/01/02 00:40:38;;;;;;;13.35;2.78;;;12.40;99.90;;;;;;5020733;28;20032;-87
2022/01/02 00:43:08;;;;;;;8.18;2.60;;;12.40;99.90;;;;;;5026350;28;20018;-88
2022/01/02 00:45:41;;;;;;;7.13;2.22;;;12.50;99.90;;;;;;5030902;28;20053;-87
2022/01/02 00:48:09;;;;;;;;;;;12.50;99.90;;;;;;5034889;28;20032;-88
2022/01/02 00:50:42;;;;;;;7.95;1.92;;;12.40;99.90;;;;;;5029714;28;19919;-88
2022/01/02 00:53:10;;;;;;;6.03;1.63;;;12.40;99.90;;;;;;5033159;28;20014;-88
2022/01/02 00:55:36;;;;;;;6.72;2.10;;;12.40;99.90;;;;;;5030016;28;20390;-88
2022/01/02 00:58:16;;;;;;;6.32;2.38;;;12.40;99.90;;;;;;5024876;28;20214;-88
2022/01/02 01:00:49;;;;;;;6.88;2.03;;;12.30;99.90;;;;;;5030562;28;20048;-88
2022/01/02 01:03:23;;;;;;;10.27;2.65;;;12.30;99.90;;;;;;5026856;28;20036;-89
2022/01/02 01:05:53;;;;;;;6.40;2.10;;;12.30;99.90;;;;;;5028811;28;20022;-89
2022/01/02 01:08:21;;;;;;;8.07;2.10;;;12.30;99.90;;;;;;5032073;28;20139;-90
2022/01/02 01:10:47;;;;;;;4.97;2.40;;;12.20;99.90;;;;;;5031439;28;20083;-89
2022/01/02 01:13:13;;;;;;;9.73;3.25;;;12.20;99.90;;;;;;5032243;28;20520;-89
2022/01/02 01:15:39;;;;;;;6.40;2.17;;;12.10;99.90;;;;;;5029241;28;20029;-88
2022/01/02 01:18:05;;;;;;;11.98;2.60;;;12.10;99.90;;;;;;5032660;28;20072;-90
2022/01/02 01:20:36;;;;;;;6.53;2.38;;;12.10;99.90;;;;;;5026804;28;20068;-89
2022/01/02 01:23:02;;;;;;;7.57;2.53;;;12.00;99.90;;;;;;5029089;28;20086;-89
2022/01/02 01:25:28;;;;;;;7.05;2.13;;;12.00;99.90;;;;;;5031009;28;20029;-89
2022/01/02 01:27:54;;;;;;;11.40;2.70;;;12.00;99.90;;;;;;5031838;28;20029;-88
2022/01/02 01:30:21;;;;;;;11.10;2.35;;;11.90;99.90;;;;;;5027295;28;20512;-89
2022/01/02 01:32:47;;;;;;;6.78;2.30;;;11.90;99.90;;;;;;5028044;28;20033;-88
2022/01/02 01:35:14;;;;;;;6.78;2.10;;;11.90;99.90;;;;;;5025701;28;20036;-88
2022/01/02 01:37:40;;;;;;;5.35;1.83;;;11.90;99.90;;;;;;5022289;28;20486;-87
2022/01/02 01:40:08;;;;;;;8.65;2.85;;;11.90;99.90;;;;;;5018558;28;20039;-88
2022/01/02 01:42:44;;;;;;;8.65;2.70;;;11.90;99.90;;;;;;5019348;28;20415;-88
2022/01/02 01:48:07;;;;;;;8.23;2.60;;;11.90;99.90;;;;;;5032454;28;20037;-87
2022/01/02 01:50:39;;;;;;;7.72;2.47;;;11.90;99.90;;;;;;5020703;28;20069;-88
2022/01/02 01:53:05;;;;;;;;;;;11.90;99.90;;;;;;5027586;28;20071;-87
2022/01/02 01:55:32;;;;;;;8.95;2.15;;;11.90;99.90;;;;;;5030254;28;20366;-87
2022/01/02 01:57:59;;;;;;;7.20;2.63;;;11.90;99.90;;;;;;5031902;28;20053;-87
2022/01/02 02:00:25;;;;;;;8.80;2.45;;;11.90;99.90;;;;;;5019828;28;20410;-87
2022/01/02 02:02:50;;;;;;;6.95;2.70;;;11.90;99.90;;;;;;5033323;28;20052;-87
2022/01/02 02:05:16;;;;;;;12.65;2.72;;;11.90;99.90;;;;;;5030140;28;20068;-87
2022/01/02 02:07:44;;;;;;;10.27;2.70;;;11.80;99.90;;;;;;5032864;28;20257;-87
2022/01/02 02:10:24;;;;;;;6.65;2.72;;;11.90;99.90;;;;;;5028440;28;20021;-88
2022/01/02 02:12:53;;;;;;;7.03;2.15;;;11.90;99.90;;;;;;5021494;28;20032;-88
2022/01/02 02:15:19;;;;;;;8.48;2.13;;;11.80;99.90;;;;;;5027027;28;20109;-88
2022/01/02 02:17:48;;;;;;;6.40;2.35;;;11.90;99.90;;;;;;5027928;28;20037;-87
2022/01/02 02:20:29;;;;;;;7.70;2.20;;;11.90;99.90;;;;;;5024963;28;20028;-89
2022/01/02 02:22:57;;;;;;;7.43;2.63;;;11.90;99.90;;;;;;5039537;28;20124;-88
2022/01/02 02:25:34;;;;;;;11.23;2.47;;;11.90;99.90;;;;;;5030413;28;20477;-88
2022/01/02 02:28:12;;;;;;;8.73;2.53;;;11.90;99.90;;;;;;5017846;28;20034;-88
2022/01/02 02:30:40;;;;;;;6.13;2.08;;;11.90;99.90;;;;;;5018446;28;20429;-88
2022/01/02 02:33:07;;;;;;;7.32;2.47;;;11.90;99.90;;;;;;5031777;28;20025;-88
2022/01/02 02:35:34;;;;;;;10.77;2.65;;;11.90;99.90;;;;;;5028559;28;20034;-88
2022/01/02 02:38:00;;;;;;;8.70;2.55;;;12.00;99.90;;;;;;5032919;28;20034;-87
2022/01/02 02:40:28;;;;;;;9.85;1.98;;;12.00;99.90;;;;;;5029060;28;20022;-89
2022/01/02 02:43:03;;;;;;;7.30;2.63;;;12.00;99.90;;;;;;5029225;28;20025;-88
2022/01/02 02:51:07;;;;;;;10.73;2.92;;;12.10;99.90;;;;;;5023587;28;20039;-87
2022/01/02 02:53:36;;;;;;;10.13;2.03;;;12.20;99.90;;;;;;5015761;28;20041;-87
2022/01/02 02:56:12;;;;;;;11.25;2.85;;;12.20;99.90;;;;;;5024317;28;20512;-87
2022/01/02 02:58:41;;;;;;;10.88;1.88;;;12.20;99.90;;;;;;5027473;28;20026;-87
2022/01/02 03:01:07;;;;;;;7.60;1.63;;;12.30;99.90;;;;;;5019199;28;20053;-86
2022/01/02 03:03:33;;;;;;;6.97;1.92;;;12.30;99.90;;;;;;5026208;28;20038;-87
2022/01/02 03:05:59;;;;;;;9.55;1.90;;;12.30;99.90;;;;;;5016969;28;20474;-87
2022/01/02 03:08:26;;;;;;;9.73;1.40;;;12.30;99.90;;;;;;5018580;28;20433;-87
2022/01/02 03:10:51;;;;;;;9.15;1.77;;;12.30;99.90;;;;;;5026170;28;20006;-87
2022/01/02 03:13:17;;;;;;;7.50;1.88;;;12.30;99.90;;;;;;5020983;28;20458;-87
2022/01/02 03:15:42;;;;;;;11.73;1.95;;;12.30;99.90;;;;;;5023320;28;20030;-87
2022/01/02 03:18:08;;;;;;;8.07;1.83;;;12.40;99.90;;;;;;5029260;28;20382;-87
2022/01/02 03:20:33;;;;;;;5.18;1.50;;;12.40;99.90;;;;;;5029302;28;20038;-87
2022/01/02 03:22:59;;;;;;;8.88;2.15;;;12.40;99.90;;;;;;5027309;28;20124;-87
2022/01/02 03:25:25;;;;;;;6.90;1.50;;;12.40;99.90;;;;;;5027987;28;20022;-87
2022/01/02 03:27:50;;;;;;;10.20;1.90;;;12.40;99.90;;;;;;5024950;28;20112;-87
2022/01/02 03:30:15;;;;;;;10.40;2.22;;;12.40;99.90;;;;;;5027045;28;20490;-87
2022/01/02 03:32:41;;;;;;;10.48;1.73;;;12.50;99.90;;;;;;5018658;28;20026;-87
2022/01/02 03:35:08;;;;;;;10.07;1.77;;;12.50;99.90;;;;;;5013324;28;20108;-87
2022/01/02 03:37:34;;;;;;;10.75;1.75;;;12.50;99.90;;;;;;5030605;28;20037;-86
2022/01/02 03:40:01;;;;;;;12.95;2.22;;;12.50;99.90;;;;;;5027295;28;20053;-87
2022/01/02 03:42:26;;;;;;;9.73;1.60;;;12.60;99.90;;;;;;5024782;28;20084;-87
2022/01/02 03:44:52;;;;;;;13.82;1.75;;;12.70;99.90;;;;;;5026425;28;20508;-87
2022/01/02 03:47:17;;;;;;;9.73;1.65;;;12.70;99.90;;;;;;5030416;28;20493;-86
2022/01/02 03:49:43;;;;;;;6.88;1.45;;;12.80;99.90;;;;;;5033965;28;20037;-87
2022/01/02 03:52:08;;;;;;;13.15;1.73;;;12.80;99.90;;;;;;5030967;28;20120;-87
2022/01/02 03:54:34;;;;;;;7.47;2.10;;;12.80;99.90;;;;;;5023648;28;20654;-86
2022/01/02 03:57:00;;;;;;;6.10;1.20;;;12.90;99.90;;;;;;5026691;28;20041;-86
2022/01/02 03:59:26;;;;;;;11.13;1.98;;;12.90;99.90;;;;;;5033008;28;20022;-87
2022/01/02 04:01:51;;;;;;;6.38;1.60;;;12.90;99.90;;;;;;5030940;28;20088;-87
2022/01/02 04:04:17;;;;;;;9.70;1.50;;;13.00;99.90;;;;;;5015552;28;20026;-87
2022/01/02 04:06:43;;;;;;;6.40;1.45;;;12.90;99.90;;;;;;5019392;28;20038;-86
2022/01/02 04:09:08;;;;;;;8.48;1.13;;;12.90;99.90;;;;;;5030308;28;20033;-87
2022/01/02 04:11:34;;;;;;;5.10;1.20;;;12.80;99.90;;;;;;5017702;28;20422;-87
2022/01/02 04:13:59;;;;;;;11.38;1.85;;;12.80;99.90;;;;;;5021069;28;20025;-87
2022/01/02 04:16:25;;;;;;;8.82;1.77;;;12.80;99.90;;;;;;5028014;28;20501;-87
2022/01/02 04:18:51;;;;;;;9.82;1.70;;;12.70;99.90;;;;;;5020320;28;20025;-88
2022/01/02 04:21:16;;;;;;;9.20;3.08;;;12.70;99.90;;;;;;5025289;28;20037;-88
2022/01/02 04:23:42;;;;;;;7.03;1.90;;;12.70;99.90;;;;;;5027172;28;20033;-88
2022/01/02 04:26:08;;;;;;;12.18;2.15;;;12.60;99.90;;;;;;5029602;28;20112;-88
2022/01/02 04:28:33;;;;;;;7.82;2.17;;;12.60;99.90;;;;;;5033783;28;20025;-88
2022/01/02 04:30:59;;;;;;;7.85;2.33;;;12.50;99.90;;;;;;5027384;28;20093;-88
2022/01/02 04:33:24;;;;;;;7.05;1.65;;;12.50;99.90;;;;;;5022507;28;20033;-87
2022/01/02 04:35:50;;;;;;;9.90;2.10;;;12.50;99.90;;;;;;5029870;28;20052;-87
2022/01/02 04:38:17;;;;;;;12.07;1.80;;;12.40;99.90;;;;;;5032943;28;20128;-87
2022/01/02 04:40:42;;;;;;;8.02;1.73;;;12.40;99.90;;;;;;5033583;28;20021;-87
2022/01/02 04:43:08;;;;;;;9.80;2.30;;;12.40;99.90;;;;;;5026802;28;20129;-87
2022/01/02 04:45:33;;;;;;;8.60;2.25;;;12.40;99.90;;;;;;5024715;28;20025;-87
2022/01/02 04:47:59;;;;;;;12.20;2.10;;;12.40;99.90;;;;;;5027182;28;20383;-88
2022/01/02 04:50:25;;;;;;;5.70;1.63;;;12.40;99.90;;;;;;5019398;28;20022;-88
2022/01/02 04:52:51;;;;;;;8.07;1.63;;;12.40;99.90;;;;;;5033998;28;20025;-88
2022/01/02 04:55:16;;;;;;;9.95;1.98;;;12.40;99.90;;;;;;5034293;28;20478;-88
2022/01/02 04:57:42;;;;;;;6.53;1.60;;;12.40;99.90;;;;;;5032626;28;20045;-88
2022/01/02 05:00:08;;;;;;;8.73;1.77;;;12.40;99.90;;;;;;5032919;28;20069;-87
2022/01/02 05:02:33;;;;;;;7.20;1.98;;;12.40;99.90;;;;;;5034460;28;20026;-88
2022/01/02 05:04:59;;;;;;;13.15;2.05;;;12.30;99.90;;;;;;5026022;28;20099;-87
2022/01/02 05:07:25;;;;;;;8.48;1.92;;;12.30;99.90;;;;;;5022401;28;20042;-87
2022/01/02 05:09:50;;;;;;;9.27;2.13;;;12.30;99.90;;;;;;5023734;28;20048;-88
2022/01/02 05:12:16;;;;;;;10.20;1.52;;;12.30;99.90;;;;;;5030227;28;20032;-87
2022/01/02 05:14:41;;;;;;;6.50;1.80;;;12.30;99.90;;;;;;5031309;28;20026;-88
2022/01/02 05:17:07;;;;;;;6.65;1.60;;;12.30;99.90;;;;;;5025173;28;20136;-88
2022/01/02 05:19:33;;;;;;;13.35;2.88;;;12.20;99.90;;;;;;5017830;28;20029;-87
2022/01/02 05:21:59;;;;;;;7.82;2.05;;;12.20;99.90;;;;;;5029085;28;20080;-87
2022/01/02 05:24:24;;;;;;;10.07;2.50;;;12.20;99.90;;;;;;5021961;28;20028;-88
2022/01/02 05:26:51;;;;;;;7.45;2.28;;;12.10;99.90;;;;;;5021551;28;20397;-87
2022/01/02 05:29:17;;;;;;;7.57;1.80;;;12.10;99.90;;;;;;5016157;28;20399;-87
2022/01/02 05:31:42;;;;;;;7.18;2.10;;;12.10;99.90;;;;;;5030648;28;20117;-87
2022/01/02 05:34:08;;;;;;;8.32;2.05;;;12.00;99.90;;;;;;5022858;28;20056;-87
2022/01/02 05:36:34;;;;;;;10.18;2.38;;;12.00;99.90;;;;;;5031763;28;20057;-88
2022/01/02 05:39:00;;;;;;;6.22;1.70;;;12.00;99.90;;;;;;5031846;28;20029;-87
2022/01/02 05:41:27;;;;;;;9.40;2.47;;;12.00;99.90;;;;;;5028212;28;20033;-88
2022/01/02 05:43:53;;;;;;;6.40;2.63;;;11.90;99.90;;;;;;5024243;28;20044;-88
2022/01/02 05:46:18;;;;;;;8.75;2.58;;;11.90;99.90;;;;;;5023730;28;20482;-88
2022/01/02 05:48:44;;;;;;;10.52;2.63;;;11.90;99.90;;;;;;5033127;28;20032;-87
2022/01/02 05:51:10;;;;;;;10.13;2.67;;;11.90;99.90;;;;;;5030668;28;20030;-88
2022/01/02 05:53:35;;;;;;;7.50;2.38;;;11.80;99.90;;;;;;5024493;28;20026;-87
2022/01/02 05:56:01;;;;;;;7.95;2.13;;;11.80;99.90;;;;;;5032661;28;20021;-88
2022/01/02 05:58:27;;;;;;;7.57;2.13;;;11.80;99.90;;;;;;5028819;28;20510;-87
2022/01/02 06:00:53;;;;;;;9.93;2.00;;;11.90;99.90;;;;;;5028334;28;20103;-87
2022/01/02 06:03:18;;;;;;;9.25;1.65;;;11.90;99.90;;;;;;5030356;28;20026;-88
2022/01/02 06:05:44;;;;;;;8.45;1.48;;;11.90;99.90;;;;;;5025366;28;20547;-88
2022/01/02 06:08:09;;;;;;;12.32;2.33;;;11.90;99.90;;;;;;5032101;28;20075;-88
2022/01/02 06:10:35;;;;;;;7.05;2.03;;;12.00;99.90;;;;;;5021690;28;20493;-88
2022/01/02 06:13:01;;;;;;;6.20;2.10;;;12.00;99.90;;;;;;5034436;28;20025;-87
2022/01/02 06:15:28;;;;;;;11.60;2.08;;;12.00;99.90;;;;;;5029107;28;20037;-88
2022/01/02 06:17:53;;;;;;;7.65;1.88;;;12.00;99.90;;;;;;5032910;28;20037;-88
2022/01/02 06:20:19;;;;;;;10.43;2.08;;;12.00;99.90;;;;;;5016554;28;20041;-88
2022/01/02 06:22:44;;;;;;;7.70;1.80;;;11.90;99.90;;;;;;5030182;28;20040;-88
2022/01/02 06:25:10;;;;;;;9.05;2.20;;;11.90;99.90;;;;;;5032696;28;20040;-86
2022/01/02 06:27:35;;;;;;;10.73;2.30;;;11.90;99.90;;;;;;5029480;28;20034;-89
2022/01/02 06:30:01;;;;;;;14.20;2.22;;;11.80;99.90;;;;;;5029102;28;20033;-89
2022/01/02 06:32:27;;;;;;;7.03;1.65;;;11.80;99.90;;;;;;5028828;28;20033;-90
2022/01/02 06:34:52;;;;;;;9.38;1.95;;;11.70;99.90;;;;;;5024396;28;20022;-87
2022/01/02 06:37:18;;;;;;;6.38;1.50;;;11.70;99.90;;;;;;5025958;28;20505;-88
2022/01/02 06:39:43;;;;;;;7.13;1.92;;;11.70;99.90;;;;;;5018251;28;20026;-87
2022/01/02 06:42:09;;;;;;;6.13;1.70;;;11.70;99.90;;;;;;5025453;28;20440;-87
2022/01/02 06:44:35;;;;;;;6.38;1.90;;;11.60;99.90;;;;;;5029501;28;20119;-87
2022/01/02 06:47:00;;;;;;;6.28;1.60;;;11.60;99.90;;;;;;5027176;28;20029;-87
2022/01/02 06:49:26;;;;;;;7.53;1.77;;;11.60;99.90;;;;;;5029667;28;20056;-87
2022/01/02 06:51:51;;;;;;;5.78;1.65;;;11.50;99.90;;;;;;5025848;28;20067;-87
2022/01/02 06:54:17;;;;;;;5.82;2.47;;;11.50;99.90;;;;;;5026294;28;20068;-86
2022/01/02 06:56:42;;;;;;;6.60;2.03;;;11.50;99.90;;;;;;5030573;28;20116;-87
2022/01/02 06:59:08;;;;;;;5.70;1.65;;;11.60;99.90;;;;;;5030184;28;20029;-86
2022/01/02 07:01:34;;;;;;;5.80;2.05;;;11.50;99.90;;;;;;5021290;28;20053;-86
2022/01/02 07:03:59;;;;;;;5.80;1.60;;;11.50;99.90;;;;;;5032749;28;20033;-86
2022/01/02 07:06:25;;;;;;;8.20;1.83;;;11.50;99.90;;;;;;5020129;28;20016;-86
2022/01/02 07:08:50;;;;;;;5.72;1.58;;;11.50;99.90;;;;;;5027814;28;20029;-86
2022/01/02 07:11:16;;;;;;;5.60;1.55;;;11.60;99.90;;;;;;5024182;28;20473;-85
2022/01/02 07:13:42;;;;;;;6.15;1.50;;;11.60;99.90;;;;;;5025254;28;20048;-87
2022/01/02 07:16:07;;;;;;;7.88;1.45;;;11.60;99.90;;;;;;5028572;28;20030;-86
2022/01/02 07:18:33;;;;;;;9.52;1.63;;;11.60;99.90;;;;;;5028618;28;20505;-87
2022/01/02 07:20:58;;;;;;;6.20;1.73;;;11.60;99.90;;;;;;5017181;28;20394;-87
2022/01/02 07:23:24;;;;;;;8.50;1.60;;;11.60;99.90;;;;;;5030289;28;20071;-87
2022/01/02 07:25:49;;;;;;;5.35;1.70;;;11.60;99.90;;;;;;5038412;28;20029;-87
2022/01/02 07:28:15;;;;;;;7.60;1.75;;;11.60;99.90;;;;;;5038636;28;20028;-86
2022/01/02 07:30:41;;;;;;;5.85;1.73;;;11.60;99.90;;;;;;5034078;28;20121;-86
2022/01/02 07:33:06;;;;;;;6.78;1.40;;;11.60;99.90;;;;;;5031251;28;20018;-86
2022/01/02 07:35:32;;;;;;;6.35;1.60;;;11.60;99.90;;;;;;5038333;28;20029;-87
2022/01/02 07:37:57;;;;;;;5.60;1.40;;;11.60;99.90;;;;;;5032688;28;20454;-87
2022/01/02 07:40:26;;;;;;;5.75;1.60;;;11.60;99.90;;;;;;5023787;28;20028;-87
2022/01/02 07:42:52;;;;;;;8.38;2.53;;;11.60;99.90;;;;;;5038227;28;20029;-86
2022/01/02 07:45:18;;;;;;;4.43;1.35;;;11.50;99.90;;;;;;5031861;28;20105;-86
2022/01/02 07:47:43;;;;;;;5.15;1.60;;;11.50;99.90;;;;;;5024020;28;20044;-87
2022/01/02 07:50:09;;;;;;;3.97;1.17;;;11.60;99.90;;;;;;5032380;28;20061;-87
2022/01/02 07:52:35;;;;;;;6.03;1.60;;;11.60;99.90;;;;;;5033455;28;20044;-87
2022/01/02 07:55:00;;;;;;;3.42;1.17;;;11.60;99.90;;;;;;5033546;28;20116;-86
2022/01/02 07:57:26;;;;;;;4.10;1.60;;;11.60;99.90;;;;;;5038074;28;20041;-86
2022/01/02 07:59:51;;;;;;;7.10;1.30;;;11.60;99.90;;;;;;5037721;28;20168;-86
2022/01/02 08:02:17;;;;;;;5.28;1.27;;;11.60;99.90;;;;;;5037471;28;20037;-85
2022/01/02 08:04:42;;;;;;;4.90;1.65;;;11.60;99.90;;;;;;5032591;28;20428;-86
2022/01/02 08:07:08;;;;;;;4.43;1.30;;;11.60;99.90;;;;;;5034566;28;20116;-87
2022/01/02 08:09:33;;;;;;;6.25;1.25;;;11.70;99.90;;;;;;5028263;28;20112;-86
2022/01/02 08:11:59;;;;;;;6.30;1.33;;;11.70;99.90;;;;;;5030194;28;20030;-86
2022/01/02 08:14:24;;;;;;;8.10;1.90;;;11.70;99.90;;;;;;5035115;28;20022;-87
2022/01/02 08:16:50;;;;;;;9.32;1.63;;;11.70;99.90;;;;;;5026577;28;20048;-87
2022/01/02 08:19:15;;;;;;;5.72;1.27;;;11.70;99.90;;;;;;5017847;28;20504;-87
2022/01/02 08:21:41;;;;;;;5.53;0.90;;;11.70;99.90;;;;;;5022485;28;20021;-87
2022/01/02 08:24:07;;;;;;;4.28;0.95;;;11.70;99.90;;;;;;5035331;28;20064;-87
2022/01/02 08:26:33;;;;;;;4.25;1.15;;;11.80;99.90;;;;;;5032009;28;20087;-86
2022/01/02 08:29:01;;;;;;;5.45;1.08;;;11.80;99.90;;;;;;5037509;28;20389;-87
2022/01/02 08:31:28;;;;;;;2.97;1.00;;;11.90;99.90;;;;;;5035835;28;20026;-87
2022/01/02 08:33:55;;;;;;;6.65;1.20;;;11.90;99.90;;;;;;5031126;28;20029;-85
2022/01/02 08:36:20;;;;;;;3.83;1.00;;;11.90;99.90;;;;;;5014502;28;20033;-86
2022/01/02 08:38:47;;;;;;;6.30;1.08;;;11.90;99.90;;;;;;5027179;28;20418;-85
2022/01/02 08:41:16;;;;;;;4.15;1.08;;;11.90;99.90;;;;;;5035704;28;20025;-85
2022/01/02 08:43:42;;;;;;;3.22;1.00;;;11.90;99.90;;;;;;5035009;28;20116;-86
2022/01/02 08:46:07;;;;;;;4.55;1.20;;;11.90;99.90;;;;;;5031998;28;20006;-86
2022/01/02 08:48:33;;;;;;;4.07;1.00;;;11.90;99.90;;;;;;5016676;28;20038;-87
2022/01/02 08:50:59;;;;;;;4.18;1.35;;;11.80;99.90;;;;;;5020419;28;20036;-87
2022/01/02 08:53:27;;;;;;;4.45;1.17;;;11.80;99.90;;;;;;5033518;28;20030;-87
2022/01/02 08:55:53;;;;;;;3.75;0.95;;;11.80;99.90;;;;;;5027005;28;20049;-87
2022/01/02 08:58:19;;;;;;;3.10;1.10;;;11.80;99.90;;;;;;5028028;28;20044;-87
2022/01/02 09:00:45;;;;;;;5.15;1.60;;;11.80;99.90;;;;;;5025116;28;20041;-87
2022/01/02 09:03:11;;;;;;;6.80;1.33;;;11.80;99.90;;;;;;5036438;28;20034;-87
2022/01/02 09:05:36;;;;;;;5.85;1.35;;;11.80;99.90;;;;;;5031211;28;20030;-87
2022/01/02 09:08:02;;;;;;;5.32;1.40;;;11.80;99.90;;;;;;5034140;28;20032;-87
2022/01/02 09:10:27;;;;;;;7.57;1.60;;;11.80;99.90;;;;;;5032180;28;20124;-87
2022/01/02 09:12:53;;;;;;;4.40;1.20;;;11.80;99.90;;;;;;5030922;28;20112;-87
2022/01/02 09:15:18;;;;;;;7.43;1.35;;;11.90;99.90;;;;;;5047684;28;20037;-86
2022/01/02 09:17:44;;;;;;;4.50;1.50;;;11.90;99.90;;;;;;5031279;28;20499;-87
2022/01/02 09:20:11;;;;;;;5.65;1.35;;;11.90;99.90;;;;;;5032461;28;20034;-88
2022/01/02 09:22:37;;;;;;;5.70;1.67;;;11.90;99.90;;;;;;5030060;28;20136;-87
2022/01/02 09:25:04;;;;;;;3.85;1.33;;;11.90;99.90;;;;;;5026820;28;20187;-87
2022/01/02 09:27:29;;;;;;;3.70;1.60;;;11.90;99.90;;;;;;5045971;28;20383;-87
2022/01/02 09:29:55;;;;;;;5.50;1.92;;;11.90;99.90;;;;;;5027448;28;20033;-88
2022/01/02 09:32:21;;;;;;;3.88;1.55;;;12.00;99.90;;;;;;5030450;28;20127;-88
2022/01/02 09:34:46;;;;;;;6.88;1.77;;;12.00;99.90;;;;;;5034507;28;20425;-85
2022/01/02 09:37:12;;;;;;;5.55;1.30;;;12.10;99.90;;;;;;5017183;28;20176;-85
2022/01/02 09:39:38;;;;;;;8.75;1.80;;;12.10;99.90;;;;;;5020584;28;20104;-86
2022/01/02 09:42:04;;;;;;;4.30;1.73;;;12.10;99.90;;;;;;5032189;28;20030;-86
2022/01/02 09:44:31;;;;;;;5.55;2.03;;;12.10;99.90;;;;;;5031819;28;20021;-86
2022/01/02 09:46:58;;;;;;;6.22;2.10;;;12.10;99.90;;;;;;5032048;28;20032;-85
2022/01/02 09:49:24;;;;;;;6.13;1.90;;;12.00;99.90;;;;;;5021928;28;20034;-87
2022/01/02 09:51:50;;;;;;;6.25;2.28;;;12.00;99.90;;;;;;5015188;28;20022;-86
2022/01/02 09:54:16;;;;;;;4.13;1.60;;;12.00;99.90;;;;;;5030001;28;20033;-86
2022/01/02 09:56:42;;;;;;;5.72;2.15;;;12.00;99.90;;;;;;5034547;28;20030;-85
2022/01/02 09:59:08;;;;;;;5.15;2.22;;;12.00;99.90;;;;;;5029878;28;20037;-85
2022/01/02 10:01:34;;;;;;;4.97;2.30;;;12.00;99.90;;;;;;5026000;28;20042;-86
2022/01/02 10:03:59;;;;;;;8.27;2.70;;;12.00;99.90;;;;;;5026618;28;20037;-86
2022/01/02 10:06:48;;;;;;;9.15;3.28;;;12.00;99.90;;;;;;5021593;28;20034;-86
2022/01/02 10:09:16;;;;;;;5.13;2.22;;;12.10;99.90;;;;;;5034113;28;20025;-86
2022/01/02 10:11:41;;;;;;;6.78;2.53;;;12.10;99.90;;;;;;5033318;28;20026;-85
2022/01/02 10:14:09;;;;;;;5.95;2.90;;;12.30;99.90;;;;;;5030871;28;20032;-86
2022/01/02 10:16:42;;;;;;;10.25;2.72;;;12.30;99.90;;;;;;5028924;28;20075;-85
2022/01/02 10:19:29;;;;;;;6.50;2.88;;;12.50;99.90;;;;;;5029000;28;20492;-86
2022/01/02 10:21:57;;;;;;;8.73;3.17;;;12.50;99.90;;;;;;5027458;28;20022;-85
2022/01/02 10:24:27;;;;;;;5.68;2.28;;;12.50;99.90;;;;;;5027496;28;20112;-86
2022/01/02 10:27:14;;;;;;;7.65;3.08;;;12.60;99.90;;;;;;5044271;28;20057;-86
2022/01/02 10:29:40;;;;;;;7.30;3.00;;;12.70;99.90;;;;;;5032395;28;20028;-86
2022/01/02 10:32:43;;;;;;;8.70;2.78;;;12.70;99.90;;;;;;5034272;28;20370;-86
2022/01/02 10:35:16;;;;;;;7.65;2.78;;;12.80;99.90;;;;;;4995111;28;20045;-86
2022/01/02 10:37:47;;;;;;;7.60;3.13;;;12.80;99.90;;;;;;5023940;28;20592;-87
2022/01/02 10:40:36;;;;;;;9.07;2.28;;;12.80;99.90;;;;;;5048149;28;20533;-87
2022/01/02 10:43:30;;;;;;;6.75;2.45;;;12.80;99.90;;;;;;5028578;28;20065;-87
2022/01/02 10:45:59;;;;;;;7.25;2.67;;;12.80;99.90;;;;;;5028654;28;20108;-86
2022/01/02 10:48:37;;;;;;;7.35;2.70;;;12.80;99.90;;;;;;5030016;28;20021;-87
2022/01/02 10:51:17;;;;;;;6.22;1.77;;;12.90;99.90;;;;;;5014390;28;20558;-87
2022/01/02 10:53:51;;;;;;;8.40;2.20;;;12.90;99.90;;;;;;5024984;28;20038;-86
2022/01/02 10:56:21;;;;;;;5.80;2.10;;;13.00;99.90;;;;;;5029562;28;20066;-85
2022/01/02 10:58:47;;;;;;;7.38;2.38;;;13.10;99.90;;;;;;5028967;28;20033;-87
2022/01/02 11:01:13;;;;;;;8.35;2.83;;;13.00;99.90;;;;;;5023801;28;20053;-86
2022/01/02 11:03:39;;;;;;;5.88;2.13;;;13.00;99.90;;;;;;5031387;28;20429;-88
2022/01/02 11:06:07;;;;;;;8.70;2.40;;;13.00;99.90;;;;;;5023827;28;20022;-86
2022/01/02 11:08:35;;;;;;;6.82;2.15;;;12.90;99.90;;;;;;5019478;28;20025;-86
2022/01/02 11:11:03;;;;;;;6.88;2.22;;;12.90;99.90;;;;;;5017032;28;20077;-86
2022/01/02 11:13:30;;;;;;;11.10;2.72;;;13.00;99.90;;;;;;5022776;28;20164;-86
2022/01/02 11:16:00;;;;;;;7.90;2.92;;;13.00;99.90;;;;;;5020750;28;20021;-87
2022/01/02 11:18:29;;;;;;;8.57;2.38;;;13.00;99.90;;;;;;5019874;28;20072;-86
2022/01/02 11:20:55;;;;;;;6.75;1.98;;;13.00;99.90;;;;;;5020741;28;20025;-86
2022/01/02 11:23:25;;;;;;;6.72;2.15;;;13.00;99.90;;;;;;5019301;28;20079;-86
2022/01/02 11:26:13;;;;;;;8.82;2.17;;;13.10;99.90;;;;;;5021861;28;20072;-87
2022/01/02 11:28:49;;;;;;;9.65;2.00;;;13.10;99.90;;;;;;5038848;28;20052;-86
2022/01/02 11:31:31;;;;;;;7.85;1.90;;;13.20;99.90;;;;;;5019933;28;20108;-86
2022/01/02 11:33:57;;;;;;;9.88;1.85;;;13.20;99.90;;;;;;5020766;28;20052;-86
2022/01/02 11:36:31;;;;;;;6.68;1.70;;;13.20;99.90;;;;;;5022106;28;20033;-86
2022/01/02 11:38:59;;;;;;;6.25;1.75;;;13.20;99.90;;;;;;5029284;28;20090;-86
2022/01/02 11:41:43;;;;;;;10.57;1.55;;;13.20;99.90;;;;;;5036539;28;20024;-86
2022/01/02 11:44:17;;;;;;;10.93;2.38;;;13.20;99.90;;;;;;5026439;28;20067;-86
2022/01/02 11:46:50;;;;;;;9.45;1.95;;;13.10;99.90;;;;;;5023556;28;20475;-86
2022/01/02 11:49:37;;;;;;;8.32;2.58;;;13.20;99.90;;;;;;5021057;28;20022;-87
2022/01/02 11:52:21;;;;;;;7.80;1.77;;;13.20;99.90;;;;;;5022004;28;20091;-86
2022/01/02 11:54:49;;;;;;;7.15;1.48;;;13.30;99.90;;;;;;5023448;28;20026;-86
2022/01/02 11:57:15;;;;;;;12.27;1.92;;;13.40;99.90;;;;;;5022845;28;20033;-86
2022/01/02 11:59:43;;;;;;;6.60;1.52;;;13.40;99.90;;;;;;5031367;28;20432;-86
2022/01/02 12:02:14;;;;;;;9.85;1.75;;;13.40;99.90;;;;;;5031448;28;20026;-86
2022/01/02 12:04:58;;;;;;;6.25;1.50;;;13.40;99.90;;;;;;5031785;28;20017;-87
2022/01/02 12:07:33;;;;;;;6.63;1.88;;;13.40;99.90;;;;;;5020929;28;20619;-86
2022/01/02 12:10:21;;;;;;;9.50;2.13;;;13.50;99.90;;;;;;5033012;28;20035;-85
2022/01/02 12:12:59;;;;;;;5.40;1.75;;;13.50;99.90;;;;;;5030721;28;20495;-86
2022/01/02 12:15:44;;;;;;;7.45;1.92;;;13.50;99.90;;;;;;5015636;28;20498;-87
2022/01/02 12:18:26;;;;;;;9.35;1.50;;;13.50;99.90;;;;;;5023294;28;20124;-87
2022/01/02 12:20:53;;;;;;;8.23;1.63;;;13.40;99.90;;;;;;5025133;28;20032;-89
2022/01/02 12:23:36;;;;;;;8.93;1.92;;;13.40;99.90;;;;;;5031044;28;20574;-87
2022/01/02 12:26:16;;;;;;;7.32;1.58;;;13.50;99.90;;;;;;5015364;28;20487;-87
2022/01/02 12:28:43;;;;;;;7.72;1.88;;;13.50;99.90;;;;;;5032244;28;20047;-88
2022/01/02 12:31:14;;;;;;;7.72;1.50;;;13.40;99.90;;;;;;5034570;28;20079;-87
2022/01/02 12:33:42;;;;;;;8.45;1.85;;;13.50;99.90;;;;;;5033906;28;20330;-88
2022/01/02 12:36:11;;;;;;;9.13;1.70;;;13.50;99.90;;;;;;5051485;28;20016;-86
2022/01/02 12:38:56;;;;;;;6.28;0.95;;;13.50;99.90;;;;;;5034757;28;20424;-88
2022/01/02 12:41:27;;;;;;;7.20;1.50;;;13.40;99.90;;;;;;5034994;28;20061;-88
2022/01/02 12:43:54;;;;;;;8.27;1.60;;;13.50;99.90;;;;;;5026877;28;20536;-87
2022/01/02 12:46:39;;;;;;;8.30;1.58;;;13.50;99.90;;;;;;5031568;28;20104;-87
2022/01/02 12:49:19;;;;;;;15.02;2.97;;;13.50;99.90;;;;;;5034782;28;20022;-86
2022/01/02 12:51:50;;;;;;;8.50;1.60;;;13.50;99.90;;;;;;5029795;28;20037;-87
2022/01/02 12:54:18;;;;;;;6.53;1.90;;;13.50;99.90;;;;;;5022335;28;20025;-87
2022/01/02 12:56:47;;;;;;;8.00;1.73;;;13.50;99.90;;;;;;5022845;28;20018;-88
2022/01/02 12:59:29;;;;;;;10.98;1.67;;;13.50;99.90;;;;;;5034830;28;20025;-87